Kamrar, Iowa
Current Conditions -  °F | °C
As of 1:55 PM on Saturday 25 Oct 2014 (Local Time) from KEBS Reporting Station
Clear Clear  
Wind Chill: 66°   Ceiling: Unl
Heat Index: 66°   Visibility: 10mi
Dew Point: 36°   Wind: 13mph
Humidity: 32%   Direction: 10°N
Pressure: 30.08"   Gusts: NA
Location:  42.39°N, 93.73°W
Report Text: KEBS 251855Z AUTO 01011KT 10SM CLR 19/02 A3008 RMK AO2
Loading
Personal Weather Stations






























Interactive Weather Map
Tropical Storm Tracking
New forecast layout! Learn more

10-Day Weather Forecast

Advertisements
Track Severe Weather on mobile